createdAt,value
2018-08-11T00:00:08.072Z,85.58
2018-08-11T00:01:08.087Z,85.49
2018-08-11T00:02:08.112Z,85.78
2018-08-11T00:03:08.138Z,85.68
2018-08-11T00:04:08.163Z,85.39
2018-08-11T00:05:08.176Z,86.07
2018-08-11T00:06:08.202Z,85.68
2018-08-11T00:07:08.216Z,86.07
2018-08-11T00:08:08.243Z,85.97
2018-08-11T00:09:08.268Z,85.58
2018-08-11T00:10:08.282Z,85.49
2018-08-11T00:11:08.306Z,85.68
2018-08-11T00:12:08.333Z,85.58
2018-08-11T00:13:08.360Z,85.97
2018-08-11T00:14:08.372Z,85.58
2018-08-11T00:15:08.399Z,85.78
2018-08-11T00:16:08.425Z,85.39
2018-08-11T00:17:08.437Z,85.21
2018-08-11T00:18:08.463Z,85.01
2018-08-11T00:19:08.490Z,85.01
2018-08-11T00:20:08.503Z,85.30
2018-08-11T00:21:08.530Z,85.11
2018-08-11T00:22:08.555Z,85.30
2018-08-11T00:23:08.567Z,85.30
2018-08-11T00:24:08.598Z,85.11
2018-08-11T00:25:08.620Z,85.11
2018-08-11T00:26:08.634Z,85.01
2018-08-11T00:27:08.659Z,85.01
2018-08-11T00:28:08.686Z,85.01
2018-08-11T00:29:08.699Z,85.21
2018-08-11T00:30:08.725Z,85.49
2018-08-11T00:31:08.750Z,85.49
2018-08-11T00:32:08.764Z,85.39
2018-08-11T00:33:08.791Z,85.39
2018-08-11T00:34:08.817Z,85.11
2018-08-11T00:35:08.830Z,85.58
2018-08-11T00:36:08.855Z,85.53
2018-08-11T00:37:08.881Z,85.30
2018-08-11T00:38:08.906Z,85.39
2018-08-11T00:39:08.921Z,85.21
2018-08-11T00:40:08.947Z,85.25
2018-08-11T00:41:08.973Z,85.21
2018-08-11T00:42:08.985Z,85.21
2018-08-11T00:43:09.012Z,85.30
2018-08-11T00:44:09.037Z,85.11
2018-08-11T00:45:09.052Z,85.21
2018-08-11T00:46:09.078Z,85.01
2018-08-11T00:47:09.105Z,85.39
2018-08-11T00:48:09.129Z,85.01
2018-08-11T00:49:09.142Z,85.39
2018-08-11T00:50:09.169Z,84.91
2018-08-11T00:51:09.183Z,85.39
2018-08-11T00:52:09.209Z,85.49
2018-08-11T00:53:09.236Z,85.58
2018-08-11T00:54:09.259Z,85.39
2018-08-11T00:55:09.275Z,85.58
2018-08-11T00:56:09.298Z,85.58
2018-08-11T00:57:09.324Z,85.58
2018-08-11T00:58:09.340Z,85.58
2018-08-11T00:59:09.364Z,85.39
2018-08-11T01:00:09.391Z,85.58
2018-08-11T01:01:09.404Z,85.97
2018-08-11T01:02:09.429Z,85.78
2018-08-11T01:03:09.455Z,85.68
2018-08-11T01:04:09.470Z,85.49
2018-08-11T01:05:09.496Z,85.49
2018-08-11T01:06:09.521Z,85.68
2018-08-11T01:07:09.534Z,86.07
2018-08-11T01:08:09.560Z,86.25
2018-08-11T01:09:09.585Z,86.54
2018-08-11T01:10:09.615Z,86.25
2018-08-11T01:11:09.626Z,86.16
2018-08-11T01:12:09.652Z,85.97
2018-08-11T01:13:09.666Z,86.54
2018-08-11T01:14:09.692Z,86.16
2018-08-11T01:15:09.716Z,86.25
2018-08-11T01:16:09.742Z,85.88
2018-08-11T01:17:09.757Z,86.16
2018-08-11T01:18:09.783Z,86.45
2018-08-11T01:19:09.808Z,86.25
2018-08-11T01:20:09.821Z,86.16
2018-08-11T01:21:09.848Z,86.16
2018-08-11T01:22:09.873Z,86.07
2018-08-11T01:23:09.887Z,86.25
2018-08-11T01:24:09.915Z,86.74
2018-08-11T01:25:09.943Z,87.02
2018-08-11T01:26:09.951Z,86.83
2018-08-11T01:27:09.978Z,87.21
2018-08-11T01:28:10.004Z,87.50
2018-08-11T01:29:10.018Z,87.31
2018-08-11T01:30:10.045Z,87.41
2018-08-11T01:31:10.070Z,87.21
2018-08-11T01:32:10.095Z,87.41
2018-08-11T01:33:10.109Z,87.41
2018-08-11T01:34:10.137Z,87.08
2018-08-11T01:35:10.148Z,87.08
2018-08-11T01:36:10.174Z,87.12
2018-08-11T01:37:10.201Z,87.17
2018-08-11T01:38:10.214Z,87.17
2018-08-11T01:39:10.238Z,87.37
2018-08-11T01:40:10.265Z,87.12
2018-08-11T01:41:10.279Z,86.88
2018-08-11T01:42:10.305Z,87.17
2018-08-11T01:43:10.330Z,87.37
2018-08-11T01:44:10.393Z,87.46
2018-08-11T01:45:10.383Z,87.55
2018-08-11T01:46:10.397Z,87.46
2018-08-11T01:47:10.411Z,87.46
2018-08-11T01:48:10.436Z,87.46
2018-08-11T01:49:10.464Z,87.46
2018-08-11T01:50:10.473Z,87.46
2018-08-11T01:51:10.504Z,87.27
2018-08-11T01:52:10.525Z,87.27
2018-08-11T01:53:10.540Z,87.17
2018-08-11T01:54:10.565Z,87.27
2018-08-11T01:55:10.591Z,87.37
2018-08-11T01:56:10.604Z,87.37
2018-08-11T01:57:10.630Z,87.55
2018-08-11T01:58:10.646Z,87.17
2018-08-11T01:59:10.671Z,88.03
2018-08-11T02:00:10.700Z,87.94
2018-08-11T02:01:10.711Z,87.84
2018-08-11T02:02:10.735Z,87.84
2018-08-11T02:03:10.761Z,88.03
2018-08-11T02:04:10.775Z,87.74
2018-08-11T02:05:10.802Z,88.03
2018-08-11T02:06:10.827Z,88.03
2018-08-11T02:07:10.840Z,88.03
2018-08-11T02:08:10.866Z,87.99
2018-08-11T02:09:10.894Z,87.94
2018-08-11T02:10:10.906Z,88.03
2018-08-11T02:11:10.936Z,87.99
2018-08-11T02:12:10.958Z,87.80
2018-08-11T02:13:10.970Z,87.80
2018-08-11T02:14:10.997Z,87.51
2018-08-11T02:15:11.011Z,87.61
2018-08-11T02:16:11.037Z,87.70
2018-08-11T02:17:11.063Z,87.70
2018-08-11T02:18:11.076Z,87.80
2018-08-11T02:19:11.102Z,87.99
2018-08-11T02:20:11.127Z,88.56
2018-08-11T02:21:11.142Z,88.37
2018-08-11T02:22:11.168Z,88.28
2018-08-11T02:23:11.193Z,88.37
2018-08-11T02:24:11.205Z,88.28
2018-08-11T02:25:11.232Z,88.09
2018-08-11T02:26:11.246Z,88.18
2018-08-11T02:27:11.272Z,88.28
2018-08-11T02:28:11.297Z,89.04
2018-08-11T02:29:11.310Z,88.76
2018-08-11T02:30:11.355Z,88.56
2018-08-11T02:31:11.363Z,88.56
2018-08-11T02:32:11.377Z,88.56
2018-08-11T02:33:11.402Z,88.95
2018-08-11T02:34:11.426Z,88.66
2018-08-11T02:35:11.441Z,88.66
2018-08-11T02:36:11.469Z,89.14
2018-08-11T02:37:11.481Z,89.04
2018-08-11T02:38:11.507Z,88.85
2018-08-11T02:39:11.535Z,88.76
2018-08-11T02:40:11.546Z,88.66
2018-08-11T02:41:11.571Z,88.85
2018-08-11T02:42:11.586Z,88.76
2018-08-11T02:43:11.612Z,89.04
2018-08-11T02:44:11.637Z,88.66
2018-08-11T02:45:11.651Z,89.04
2018-08-11T02:46:11.677Z,89.04
2018-08-11T02:47:11.701Z,89.14
2018-08-11T02:48:11.717Z,88.95
2018-08-11T02:49:11.742Z,88.85
2018-08-11T02:50:11.768Z,88.66
2018-08-11T02:51:11.781Z,88.47
2018-08-11T02:52:11.806Z,88.28
2018-08-11T02:53:11.833Z,88.37
2018-08-11T02:54:11.846Z,88.95
2018-08-11T02:55:11.873Z,88.51
2018-08-11T02:56:11.886Z,87.90
2018-08-11T02:57:11.911Z,87.74
2018-08-11T02:58:11.936Z,87.80
2018-08-11T02:59:11.954Z,87.70
2018-08-11T03:00:11.981Z,87.74
2018-08-11T03:01:12.003Z,87.90
2018-08-11T03:02:12.016Z,87.46
2018-08-11T03:03:12.041Z,87.55
2018-08-11T03:04:12.068Z,87.46
2018-08-11T03:05:12.143Z,87.08
2018-08-11T03:06:12.108Z,86.84
2018-08-11T03:07:12.121Z,86.88
2018-08-11T03:08:12.147Z,87.08
2018-08-11T03:09:12.172Z,86.88
2018-08-11T03:10:12.186Z,87.13
2018-08-11T03:11:12.212Z,86.74
2018-08-11T03:12:12.237Z,86.84
2018-08-11T03:13:12.251Z,86.79
2018-08-11T03:14:12.277Z,86.98
2018-08-11T03:15:12.305Z,86.98
2018-08-11T03:16:12.317Z,87.08
2018-08-11T03:17:12.343Z,87.08
2018-08-11T03:18:12.369Z,86.79
2018-08-11T03:19:12.381Z,86.31
2018-08-11T03:20:12.424Z,86.36
2018-08-11T03:21:12.446Z,86.69
2018-08-11T03:22:12.447Z,86.55
2018-08-11T03:23:12.473Z,86.17
2018-08-11T03:24:12.486Z,86.46
2018-08-11T03:25:12.513Z,86.46
2018-08-11T03:26:12.538Z,86.08
2018-08-11T03:27:12.552Z,85.88
2018-08-11T03:28:12.579Z,86.55
2018-08-11T03:29:12.613Z,86.17
2018-08-11T03:30:12.617Z,87.03
2018-08-11T03:31:12.643Z,86.27
2018-08-11T03:32:12.657Z,86.17
2018-08-11T03:33:12.696Z,86.94
2018-08-11T03:34:12.708Z,86.55
2018-08-11T03:35:12.736Z,86.74
2018-08-11T03:36:12.753Z,86.55
2018-08-11T03:37:12.773Z,86.65
2018-08-11T03:38:12.787Z,86.27
2018-08-11T03:39:12.814Z,86.94
2018-08-11T03:40:12.827Z,86.84
2018-08-11T03:41:12.852Z,86.94
2018-08-11T03:42:12.890Z,86.65
2018-08-11T03:43:12.892Z,87.13
2018-08-11T03:44:12.917Z,86.84
2018-08-11T03:45:12.944Z,87.13
2018-08-11T03:46:12.957Z,86.94
2018-08-11T03:47:12.982Z,87.41
2018-08-11T03:48:13.008Z,87.27
2018-08-11T03:49:13.023Z,87.23
2018-08-11T03:50:13.048Z,87.27
2018-08-11T03:51:13.061Z,87.37
2018-08-11T03:52:13.087Z,87.27
2018-08-11T03:53:13.114Z,87.27
2018-08-11T03:54:13.127Z,87.08
2018-08-11T03:55:13.153Z,87.27
2018-08-11T03:56:13.179Z,87.95
2018-08-11T03:57:13.192Z,87.47
2018-08-11T03:58:13.218Z,87.08
2018-08-11T03:59:13.231Z,87.47
2018-08-11T04:00:13.264Z,87.76
2018-08-11T04:01:13.283Z,87.27
2018-08-11T04:02:13.295Z,87.85
2018-08-11T04:03:13.322Z,87.95
2018-08-11T04:04:13.335Z,87.76
2018-08-11T04:05:13.363Z,87.76
2018-08-11T04:06:13.388Z,87.95
2018-08-11T04:07:13.401Z,87.66
2018-08-11T04:08:13.427Z,87.95
2018-08-11T04:09:13.441Z,87.76
2018-08-11T04:10:13.467Z,87.66
2018-08-11T04:11:13.494Z,87.66
2018-08-11T04:12:13.505Z,87.66
2018-08-11T04:13:13.531Z,87.56
2018-08-11T04:14:13.546Z,87.47
2018-08-11T04:15:13.571Z,87.66
2018-08-11T04:16:13.597Z,87.85
2018-08-11T04:17:13.611Z,87.43
2018-08-11T04:18:13.636Z,87.76
2018-08-11T04:19:13.661Z,87.62
2018-08-11T04:20:13.676Z,87.71
2018-08-11T04:21:13.702Z,87.85
2018-08-11T04:22:13.714Z,87.62
2018-08-11T04:23:13.740Z,87.76
2018-08-11T04:24:13.757Z,87.71
2018-08-11T04:25:13.781Z,87.71
2018-08-11T04:26:13.806Z,87.52
2018-08-11T04:27:13.819Z,87.62
2018-08-11T04:28:13.846Z,87.66
2018-08-11T04:29:13.871Z,87.43
2018-08-11T04:30:13.887Z,87.76
2018-08-11T04:31:13.911Z,87.66
2018-08-11T04:32:13.924Z,87.76
2018-08-11T04:33:13.950Z,87.76
2018-08-11T04:34:13.989Z,87.95
2018-08-11T04:35:13.990Z,87.95
2018-08-11T04:36:14.017Z,87.95
2018-08-11T04:37:14.029Z,87.95
2018-08-11T04:38:14.054Z,87.85
2018-08-11T04:39:14.081Z,87.95
2018-08-11T04:40:14.095Z,87.85
2018-08-11T04:41:14.121Z,87.95
2018-08-11T04:42:14.134Z,87.76
2018-08-11T04:43:14.159Z,87.85
2018-08-11T04:44:14.185Z,87.95
2018-08-11T04:45:14.199Z,87.95
2018-08-11T04:46:14.226Z,87.66
2018-08-11T04:47:14.239Z,87.85
2018-08-11T04:48:14.277Z,87.76
2018-08-11T04:49:14.289Z,87.27
2018-08-11T04:50:14.306Z,87.27
2018-08-11T04:51:14.331Z,87.08
2018-08-11T04:52:14.356Z,87.27
2018-08-11T04:53:14.369Z,86.99
2018-08-11T04:54:14.395Z,87.08
2018-08-11T04:55:14.409Z,87.47
2018-08-11T04:56:14.434Z,87.08
2018-08-11T04:57:14.461Z,86.99
2018-08-11T04:58:14.475Z,86.74
2018-08-11T04:59:14.500Z,86.84
2018-08-11T05:00:14.526Z,87.03
2018-08-11T05:01:14.539Z,87.23
2018-08-11T05:02:14.565Z,86.94
2018-08-11T05:03:14.581Z,86.65
2018-08-11T05:04:14.604Z,86.84
2018-08-11T05:05:14.633Z,86.94
2018-08-11T05:06:14.644Z,86.84
2018-08-11T05:07:14.671Z,86.94
2018-08-11T05:08:14.696Z,87.03
2018-08-11T05:09:14.722Z,86.84
2018-08-11T05:10:14.737Z,86.27
2018-08-11T05:11:14.760Z,85.98
2018-08-11T05:12:14.775Z,86.94
2018-08-11T05:13:14.802Z,86.94
2018-08-11T05:14:14.826Z,86.94
2018-08-11T05:15:14.839Z,86.84
2018-08-11T05:16:14.879Z,86.79
2018-08-11T05:17:14.892Z,86.36
2018-08-11T05:18:14.905Z,86.12
2018-08-11T05:19:14.932Z,86.36
2018-08-11T05:20:14.957Z,86.31
2018-08-11T05:21:14.970Z,85.74
2018-08-11T05:22:14.998Z,86.12
2018-08-11T05:23:15.022Z,85.74
2018-08-11T05:24:15.036Z,86.02
2018-08-11T05:25:15.065Z,85.93
2018-08-11T05:26:15.098Z,86.12
2018-08-11T05:27:15.111Z,85.93
2018-08-11T05:28:15.130Z,85.54
2018-08-11T05:29:15.155Z,84.49
2018-08-11T05:30:15.166Z,84.58
2018-08-11T05:31:15.193Z,84.91
2018-08-11T05:32:15.218Z,84.82
2018-08-11T05:33:15.261Z,84.53
2018-08-11T05:34:15.257Z,84.72
2018-08-11T05:35:15.282Z,84.63
2018-08-11T05:36:15.299Z,85.01
2018-08-11T05:37:15.323Z,85.01
2018-08-11T05:38:15.348Z,84.53
2018-08-11T05:39:15.362Z,84.09
2018-08-11T05:40:15.403Z,82.94
2018-08-11T05:41:15.414Z,83.14
2018-08-11T05:42:15.431Z,83.04
2018-08-11T05:43:15.453Z,82.56
2018-08-11T05:44:15.480Z,82.56
2018-08-11T05:45:15.506Z,81.98
2018-08-11T05:46:15.518Z,82.08
2018-08-11T05:47:15.544Z,81.60
2018-08-11T05:48:15.571Z,81.89
2018-08-11T05:49:15.584Z,81.79
2018-08-11T05:50:15.611Z,81.93
2018-08-11T05:51:15.638Z,81.12
2018-08-11T05:52:15.662Z,81.45
2018-08-11T05:53:15.676Z,81.84
2018-08-11T05:54:15.702Z,82.12
2018-08-11T05:55:15.782Z,82.31
2018-08-11T05:56:15.741Z,82.21
2018-08-11T05:57:15.766Z,82.21
2018-08-11T05:58:15.792Z,82.21
2018-08-11T05:59:15.818Z,81.93
2018-08-11T06:00:15.845Z,81.26
2018-08-11T06:01:15.857Z,81.54
2018-08-11T06:02:15.883Z,81.26
2018-08-11T06:03:15.917Z,81.26
2018-08-11T06:04:15.923Z,81.74
2018-08-11T06:05:15.949Z,81.68
2018-08-11T06:06:15.975Z,81.40
2018-08-11T06:07:15.988Z,81.49
2018-08-11T06:08:16.014Z,80.91
2018-08-11T06:09:16.040Z,81.30
2018-08-11T06:10:16.067Z,80.91
2018-08-11T06:11:16.081Z,81.87
2018-08-11T06:12:16.106Z,81.20
2018-08-11T06:13:16.132Z,80.73
2018-08-11T06:14:16.157Z,80.73
2018-08-11T06:15:16.171Z,80.34
2018-08-11T06:16:16.209Z,81.10
2018-08-11T06:17:16.222Z,80.53
2018-08-11T06:18:16.248Z,80.73
2018-08-11T06:19:16.274Z,79.57
2018-08-11T06:20:16.288Z,79.76
2018-08-11T06:21:16.428Z,79.80
2018-08-11T06:22:16.340Z,80.47
2018-08-11T06:23:16.366Z,80.76
2018-08-11T06:24:16.380Z,80.86
2018-08-11T06:25:16.656Z,81.05
2018-08-11T06:26:16.433Z,80.47
2018-08-11T06:27:16.456Z,80.66
2018-08-11T06:28:16.473Z,81.05
2018-08-11T06:29:16.499Z,80.86
2018-08-11T06:30:16.524Z,80.71
2018-08-11T06:31:16.594Z,80.51
2018-08-11T06:32:16.620Z,80.32
2018-08-11T06:33:16.588Z,79.84
2018-08-11T06:34:16.613Z,79.75
2018-08-11T06:35:16.665Z,80.13
2018-08-11T06:36:16.665Z,80.22
2018-08-11T06:37:16.692Z,80.27
2018-08-11T06:38:16.705Z,79.40
2018-08-11T06:39:16.731Z,78.92
2018-08-11T06:40:16.756Z,78.28
2018-08-11T06:41:16.786Z,78.48
2018-08-11T06:42:16.809Z,78.19
2018-08-11T06:43:16.837Z,78.00
2018-08-11T06:44:16.860Z,77.08
2018-08-11T06:45:16.889Z,77.08
2018-08-11T06:46:16.900Z,76.44
2018-08-11T06:47:16.925Z,75.19
2018-08-11T06:48:16.953Z,74.51
2018-08-11T06:49:16.978Z,74.55
2018-08-11T06:50:17.003Z,73.72
2018-08-11T06:51:17.029Z,73.53
2018-08-11T06:52:17.054Z,73.53
2018-08-11T06:53:17.081Z,72.95
2018-08-11T06:54:17.106Z,72.60
2018-08-11T06:55:17.132Z,72.41
2018-08-11T06:56:17.158Z,71.19
2018-08-11T06:57:17.185Z,70.70
2018-08-11T06:58:17.213Z,70.22
2018-08-11T06:59:17.237Z,69.45
2018-08-11T07:00:17.276Z,68.97
2018-08-11T07:01:17.300Z,68.19
2018-08-11T07:02:17.327Z,68.68
2018-08-11T07:03:17.353Z,69.26
2018-08-11T07:04:17.379Z,68.97
2018-08-11T07:05:17.404Z,68.97
2018-08-11T07:06:17.433Z,69.55
2018-08-11T07:07:17.460Z,69.45
2018-08-11T07:08:17.482Z,69.74
2018-08-11T07:09:17.508Z,69.45
2018-08-11T07:10:17.535Z,69.07
2018-08-11T07:11:17.561Z,68.68
2018-08-11T07:12:17.586Z,68.87
2018-08-11T07:13:17.613Z,68.87
2018-08-11T07:14:17.638Z,68.68
2018-08-11T07:15:17.694Z,68.52
2018-08-11T07:16:17.690Z,68.43
2018-08-11T07:17:17.716Z,68.33
2018-08-11T07:18:17.744Z,68.13
2018-08-11T07:19:17.768Z,68.52
2018-08-11T07:20:17.795Z,68.23
2018-08-11T07:21:17.824Z,67.75
2018-08-11T07:22:17.850Z,68.33
2018-08-11T07:23:17.872Z,68.23
2018-08-11T07:24:17.899Z,68.62
2018-08-11T07:25:17.924Z,68.62
2018-08-11T07:26:17.951Z,68.23
2018-08-11T07:27:17.987Z,68.62
2018-08-11T07:28:18.014Z,69.20
2018-08-11T07:29:18.051Z,68.71
2018-08-11T07:30:18.108Z,68.91
2018-08-11T07:31:18.091Z,69.49
2018-08-11T07:32:18.117Z,69.20
2018-08-11T07:33:18.144Z,69.58
2018-08-11T07:34:18.169Z,69.20
2018-08-11T07:35:18.198Z,69.39
2018-08-11T07:36:18.296Z,69.23
2018-08-11T07:37:18.248Z,69.20
2018-08-11T07:38:18.273Z,69.13
2018-08-11T07:39:18.299Z,69.13
2018-08-11T07:40:18.326Z,67.88
2018-08-11T07:41:18.350Z,68.46
2018-08-11T07:42:18.377Z,68.75
2018-08-11T07:43:18.409Z,68.26
2018-08-11T07:44:18.442Z,67.69
2018-08-11T07:45:18.468Z,67.91
2018-08-11T07:46:18.496Z,65.98
2018-08-11T07:47:18.520Z,65.50
2018-08-11T07:48:18.547Z,64.43
2018-08-11T07:49:18.571Z,63.95
2018-08-11T07:50:18.610Z,63.85
2018-08-11T07:51:18.623Z,64.76
2018-08-11T07:52:18.649Z,64.56
2018-08-11T07:53:18.686Z,64.27
2018-08-11T07:54:18.713Z,62.92
2018-08-11T07:55:18.741Z,62.27
2018-08-11T07:56:18.766Z,62.73
2018-08-11T07:57:18.792Z,62.37
2018-08-11T07:58:18.816Z,61.79
2018-08-11T07:59:18.842Z,60.72
2018-08-11T08:00:18.881Z,60.34
2018-08-11T08:01:18.933Z,59.76
2018-08-11T08:02:18.933Z,59.86
2018-08-11T08:03:18.959Z,59.56
2018-08-11T08:04:18.985Z,59.18
2018-08-11T08:05:19.011Z,59.08
2018-08-11T08:06:19.038Z,59.08
2018-08-11T08:07:19.064Z,58.89
2018-08-11T08:08:19.101Z,58.40
2018-08-11T08:09:19.126Z,58.89
2018-08-11T08:10:19.153Z,59.28
2018-08-11T08:11:19.180Z,59.28
2018-08-11T08:12:19.204Z,58.89
2018-08-11T08:13:19.233Z,58.60
2018-08-11T08:14:19.257Z,58.70
2018-08-11T08:15:19.296Z,59.18
2018-08-11T08:16:19.321Z,59.28
2018-08-11T08:17:19.353Z,59.47
2018-08-11T08:18:19.373Z,59.76
2018-08-11T08:19:19.400Z,59.66
2018-08-11T08:20:19.425Z,59.66
2018-08-11T08:21:19.455Z,59.86
2018-08-11T08:22:19.480Z,59.28
2018-08-11T08:23:19.515Z,58.98
2018-08-11T08:24:19.540Z,59.56
2018-08-11T08:25:19.568Z,59.31
2018-08-11T08:26:19.754Z,59.69
2018-08-11T08:27:19.621Z,59.01
2018-08-11T08:28:19.645Z,58.82
2018-08-11T08:29:19.670Z,58.63
2018-08-11T08:30:19.698Z,58.82
2018-08-11T08:31:19.736Z,57.76
2018-08-11T08:32:19.761Z,57.95
2018-08-11T08:33:19.787Z,58.53
2018-08-11T08:34:19.817Z,58.44
2018-08-11T08:35:19.839Z,57.95
2018-08-11T08:36:19.865Z,57.66
2018-08-11T08:37:19.903Z,57.66
2018-08-11T08:38:19.929Z,57.66
2018-08-11T08:39:19.954Z,58.14
2018-08-11T08:40:19.980Z,57.86
2018-08-11T08:41:20.007Z,57.37
2018-08-11T08:42:20.034Z,57.76
2018-08-11T08:43:20.059Z,57.28
2018-08-11T08:44:20.099Z,57.08
2018-08-11T08:45:20.124Z,56.98
2018-08-11T08:46:20.149Z,57.28
2018-08-11T08:47:20.186Z,57.18
2018-08-11T08:48:20.203Z,57.56
2018-08-11T08:49:20.252Z,57.76
2018-08-11T08:50:20.265Z,57.76
2018-08-11T08:51:20.292Z,57.18
2018-08-11T08:52:20.317Z,57.66
2018-08-11T08:53:20.423Z,57.37
2018-08-11T08:54:20.372Z,56.98
2018-08-11T08:55:20.400Z,57.28
2018-08-11T08:56:20.435Z,57.18
2018-08-11T08:57:20.460Z,56.98
2018-08-11T08:58:20.487Z,57.46
2018-08-11T08:59:20.512Z,58.14
2018-08-11T09:00:20.538Z,57.76
2018-08-11T09:01:20.564Z,58.63
2018-08-11T09:02:20.601Z,59.50
2018-08-11T09:03:20.627Z,59.31
2018-08-11T09:04:20.654Z,58.63
2018-08-11T09:05:20.679Z,58.72
2018-08-11T09:06:20.705Z,58.53
2018-08-11T09:07:20.734Z,58.72
2018-08-11T09:08:20.757Z,58.92
2018-08-11T09:09:20.796Z,58.63
2018-08-11T09:10:20.822Z,59.01
2018-08-11T09:11:20.848Z,58.92
2018-08-11T09:12:20.874Z,59.69
2018-08-11T09:13:20.900Z,59.89
2018-08-11T09:14:20.926Z,59.79
2018-08-11T09:15:20.952Z,59.79
2018-08-11T09:16:20.989Z,59.69
2018-08-11T09:17:21.016Z,58.75
2018-08-11T09:18:21.045Z,58.95
2018-08-11T09:19:21.119Z,58.85
2018-08-11T09:20:21.092Z,58.95
2018-08-11T09:21:21.119Z,58.98
2018-08-11T09:22:21.157Z,58.98
2018-08-11T09:23:21.183Z,58.49
2018-08-11T09:24:21.209Z,57.53
2018-08-11T09:25:21.235Z,57.04
2018-08-11T09:26:21.261Z,57.04
2018-08-11T09:27:21.301Z,56.94
2018-08-11T09:28:21.325Z,56.94
2018-08-11T09:29:21.389Z,56.85
2018-08-11T09:30:21.378Z,56.56
2018-08-11T09:31:21.403Z,56.85
2018-08-11T09:32:21.441Z,56.75
2018-08-11T09:33:21.468Z,56.65
2018-08-11T09:34:21.493Z,56.56
2018-08-11T09:35:21.520Z,56.75
2018-08-11T09:36:21.546Z,56.94
2018-08-11T09:37:21.583Z,57.04
2018-08-11T09:38:21.665Z,57.04
2018-08-11T09:39:21.639Z,57.01
2018-08-11T09:40:21.661Z,57.50
2018-08-11T09:41:21.687Z,57.69
2018-08-11T09:42:21.713Z,57.50
2018-08-11T09:43:21.751Z,58.11
2018-08-11T09:44:21.778Z,57.81
2018-08-11T09:45:21.803Z,57.81
2018-08-11T09:46:21.830Z,57.50
2018-08-11T09:47:21.855Z,57.69
2018-08-11T09:48:21.883Z,57.69
2018-08-11T09:49:21.921Z,57.88
2018-08-11T09:50:21.945Z,57.79
2018-08-11T09:51:21.970Z,57.88
2018-08-11T09:52:22.035Z,57.88
2018-08-11T09:53:22.024Z,57.88
2018-08-11T09:54:22.049Z,57.66
2018-08-11T09:55:22.085Z,58.44
2018-08-11T09:56:22.113Z,58.82
2018-08-11T09:57:22.140Z,60.37
2018-08-11T09:58:22.165Z,62.88
2018-08-11T09:59:22.193Z,62.30
2018-08-11T10:00:22.221Z,61.24
2018-08-11T10:01:22.244Z,61.33
2018-08-11T10:02:22.270Z,61.15
2018-08-11T10:03:22.298Z,60.66
2018-08-11T10:04:22.334Z,61.15
2018-08-11T10:05:22.359Z,61.50
2018-08-11T10:06:22.384Z,62.27
2018-08-11T10:07:22.415Z,62.76
2018-08-11T10:08:22.439Z,63.92
2018-08-11T10:09:22.466Z,65.47
2018-08-11T10:10:22.489Z,65.47
2018-08-11T10:11:22.527Z,64.98
2018-08-11T10:12:22.540Z,63.82
2018-08-11T10:13:22.567Z,63.24
2018-08-11T10:14:22.608Z,63.34
2018-08-11T10:15:22.630Z,62.18
2018-08-11T10:16:22.657Z,62.08
2018-08-11T10:17:22.683Z,62.27
2018-08-11T10:18:22.745Z,61.89
2018-08-11T10:19:22.734Z,61.89
2018-08-11T10:20:22.762Z,61.50
2018-08-11T10:21:22.786Z,61.43
2018-08-11T10:22:22.812Z,61.24
2018-08-11T10:23:22.838Z,60.08
2018-08-11T10:24:22.876Z,59.59
2018-08-11T10:25:22.915Z,59.31
2018-08-11T10:26:22.932Z,59.79
2018-08-11T10:27:22.954Z,59.72
2018-08-11T10:28:22.983Z,59.23
2018-08-11T10:29:23.010Z,58.85
2018-08-11T10:30:23.049Z,58.30
2018-08-11T10:31:23.074Z,58.30
2018-08-11T10:32:23.100Z,57.53
2018-08-11T10:33:23.123Z,57.53
2018-08-11T10:34:23.149Z,57.43
2018-08-11T10:35:23.186Z,57.43
2018-08-11T10:36:23.214Z,56.94
2018-08-11T10:37:23.240Z,57.14
2018-08-11T10:38:23.264Z,57.23
2018-08-11T10:39:23.309Z,56.65
2018-08-11T10:40:23.331Z,56.36
2018-08-11T10:41:23.356Z,56.65
2018-08-11T10:42:23.381Z,56.56
2018-08-11T10:43:23.407Z,56.65
2018-08-11T10:44:23.445Z,57.04
2018-08-11T10:45:23.471Z,56.56
2018-08-11T10:46:23.502Z,56.97
2018-08-11T10:47:23.523Z,56.77
2018-08-11T10:48:23.565Z,56.39
2018-08-11T10:49:23.589Z,56.49
2018-08-11T10:50:23.615Z,56.20
2018-08-11T10:51:23.644Z,56.20
2018-08-11T10:52:23.667Z,56.29
2018-08-11T10:53:23.704Z,56.29
2018-08-11T10:54:23.733Z,56.29
2018-08-11T10:55:23.755Z,56.59
2018-08-11T10:56:23.784Z,56.59
2018-08-11T10:57:23.820Z,56.59
2018-08-11T10:58:23.850Z,56.87
2018-08-11T10:59:23.875Z,57.09
2018-08-11T11:00:23.924Z,57.00
2018-08-11T11:01:24.004Z,56.61
2018-08-11T11:02:23.962Z,56.90
2018-08-11T11:03:23.989Z,56.35
2018-08-11T11:04:24.028Z,56.54
2018-08-11T11:05:24.053Z,56.28
2018-08-11T11:06:24.080Z,56.37
2018-08-11T11:07:24.117Z,55.24
2018-08-11T11:08:24.172Z,53.42
2018-08-11T11:09:24.182Z,52.45
2018-08-11T11:10:24.208Z,51.50
2018-08-11T11:11:24.247Z,51.53
2018-08-11T11:12:24.272Z,50.07
2018-08-11T11:13:24.311Z,49.87
2018-08-11T11:14:24.396Z,49.87
2018-08-11T11:15:24.374Z,49.58
2018-08-11T11:16:24.416Z,48.90
2018-08-11T11:17:24.440Z,49.00
2018-08-11T11:18:24.480Z,48.71
2018-08-11T11:19:24.517Z,47.83
2018-08-11T11:20:24.543Z,47.25
2018-08-11T11:21:24.591Z,47.74
2018-08-11T11:22:24.607Z,47.44
2018-08-11T11:23:24.645Z,47.17
2018-08-11T11:24:24.683Z,46.69
2018-08-11T11:25:24.710Z,46.40
2018-08-11T11:26:24.753Z,46.32
2018-08-11T11:27:24.786Z,45.74
2018-08-11T11:28:24.814Z,45.94
2018-08-11T11:29:24.851Z,45.84
2018-08-11T11:30:24.877Z,45.45
2018-08-11T11:31:24.931Z,45.06
2018-08-11T11:32:24.953Z,44.98
2018-08-11T11:33:24.992Z,44.69
2018-08-11T11:34:25.018Z,44.71
2018-08-11T11:35:25.057Z,44.73
2018-08-11T11:36:25.094Z,43.85
2018-08-11T11:37:25.171Z,43.76
2018-08-11T11:38:25.161Z,43.49
2018-08-11T11:39:25.197Z,43.68
2018-08-11T11:40:25.236Z,43.61
2018-08-11T11:41:25.273Z,43.32
2018-08-11T11:42:25.299Z,42.36
2018-08-11T11:43:25.363Z,42.46
2018-08-11T11:44:25.391Z,42.07
2018-08-11T11:45:25.418Z,42.48
2018-08-11T11:46:25.456Z,41.97
2018-08-11T11:47:25.492Z,41.99
2018-08-11T11:48:25.530Z,42.38
2018-08-11T11:49:25.570Z,41.70
2018-08-11T11:50:25.595Z,41.72
2018-08-11T11:51:25.632Z,41.64
2018-08-11T11:52:25.671Z,41.15
2018-08-11T11:53:25.711Z,41.27
2018-08-11T11:54:25.748Z,41.07
2018-08-11T11:55:25.786Z,40.80
2018-08-11T11:56:25.825Z,40.70
2018-08-11T11:57:25.865Z,40.31
2018-08-11T11:58:25.904Z,40.31
2018-08-11T11:59:25.939Z,40.21
2018-08-11T12:00:25.967Z,40.21
2018-08-11T12:01:26.006Z,40.60
2018-08-11T12:02:26.044Z,40.14
2018-08-11T12:03:26.082Z,40.72
2018-08-11T12:04:26.119Z,40.72
2018-08-11T12:05:26.158Z,40.25
2018-08-11T12:06:26.196Z,39.96
2018-08-11T12:07:26.236Z,40.06
2018-08-11T12:08:26.274Z,39.76
2018-08-11T12:09:26.313Z,39.84
2018-08-11T12:10:26.350Z,40.23
2018-08-11T12:11:26.389Z,40.11
2018-08-11T12:12:26.430Z,40.50
2018-08-11T12:13:26.466Z,40.70
2018-08-11T12:14:26.504Z,40.90
2018-08-11T12:15:26.544Z,40.80
2018-08-11T12:16:26.581Z,41.00
2018-08-11T12:17:26.612Z,41.29
2018-08-11T12:18:26.646Z,40.80
2018-08-11T12:19:26.723Z,41.02
2018-08-11T12:20:26.722Z,40.53
2018-08-11T12:21:26.762Z,40.03
2018-08-11T12:22:26.799Z,40.06
2018-08-11T12:23:26.838Z,39.76
2018-08-11T12:24:26.876Z,39.88
2018-08-11T12:25:26.915Z,40.27
2018-08-11T12:26:26.954Z,39.86
2018-08-11T12:27:26.991Z,39.49
2018-08-11T12:28:27.033Z,39.69
2018-08-11T12:29:27.080Z,39.59
2018-08-11T12:30:27.094Z,39.59
2018-08-11T12:31:27.136Z,39.86
2018-08-11T12:32:27.171Z,40.14
2018-08-11T12:33:27.212Z,40.43
2018-08-11T12:34:27.247Z,40.80
2018-08-11T12:35:27.286Z,41.07
2018-08-11T12:36:27.324Z,41.64
2018-08-11T12:37:27.366Z,41.52
2018-08-11T12:38:27.390Z,41.11
2018-08-11T12:39:27.428Z,41.60
2018-08-11T12:40:27.466Z,41.60
2018-08-11T12:41:27.504Z,40.80
2018-08-11T12:42:27.530Z,40.70
2018-08-11T12:43:27.568Z,41.17
2018-08-11T12:44:27.607Z,41.27
2018-08-11T12:45:27.650Z,41.35
2018-08-11T12:46:27.672Z,41.61
2018-08-11T12:47:27.710Z,41.40
2018-08-11T12:48:27.739Z,41.91
2018-08-11T12:49:27.776Z,42.38
2018-08-11T12:50:27.801Z,41.91
2018-08-11T12:51:27.838Z,41.61
2018-08-11T12:52:27.877Z,41.61